createdAt,value
2022-09-06T00:02:24.633Z,19.90
2022-09-06T00:07:26.371Z,19.93
2022-09-06T00:12:28.391Z,19.88
2022-09-06T00:17:31.609Z,19.82
2022-09-06T00:22:33.132Z,19.74
2022-09-06T00:27:35.064Z,19.72
2022-09-06T00:32:36.614Z,19.65
2022-09-06T00:37:38.114Z,19.69
2022-09-06T00:42:39.820Z,19.63
2022-09-06T00:47:43.213Z,19.66
2022-09-06T00:52:46.963Z,19.71
2022-09-06T00:57:52.594Z,19.70
2022-09-06T01:02:54.581Z,19.73
2022-09-06T01:08:15.127Z,19.58
2022-09-06T01:13:30.006Z,19.50
2022-09-06T01:18:49.831Z,19.38
2022-09-06T01:24:25.302Z,19.32
2022-09-06T01:29:36.471Z,19.33
2022-09-06T01:34:45.421Z,19.46
2022-09-06T01:39:47.449Z,19.47
2022-09-06T01:45:01.957Z,19.39
2022-09-06T01:50:13.695Z,19.31
2022-09-06T01:55:45.076Z,19.34
2022-09-06T02:01:03.226Z,19.32
2022-09-06T02:06:14.715Z,19.39
2022-09-06T02:11:16.949Z,18.90
2022-09-06T02:16:22.713Z,19.18
2022-09-06T02:21:32.012Z,19.29
2022-09-06T02:26:37.963Z,19.23
2022-09-06T02:31:47.264Z,19.27
2022-09-06T02:36:49.243Z,19.19
2022-09-06T02:41:50.950Z,19.18
2022-09-06T02:46:56.443Z,18.93
2022-09-06T02:51:58.943Z,18.88
2022-09-06T02:57:00.462Z,18.98
2022-09-06T03:02:02.022Z,18.33
2022-09-06T03:07:03.715Z,18.44
2022-09-06T03:12:05.308Z,18.39
2022-09-06T03:17:06.902Z,18.15
2022-09-06T03:22:08.397Z,18.28
2022-09-06T03:27:09.921Z,18.21
2022-09-06T03:32:11.605Z,18.16
2022-09-06T03:37:13.119Z,17.93
2022-09-06T03:42:14.632Z,18.07
2022-09-06T03:47:19.442Z,18.43
2022-09-06T03:52:21.438Z,18.49
2022-09-06T03:57:23.367Z,18.45
2022-09-06T04:02:24.972Z,18.53
2022-09-06T04:07:26.548Z,18.44
2022-09-06T04:12:28.882Z,18.44
2022-09-06T04:17:30.448Z,18.32
2022-09-06T04:22:33.175Z,18.19
2022-09-06T04:27:34.777Z,18.05
2022-09-06T04:32:36.381Z,18.02
2022-09-06T04:37:37.956Z,18.02
2022-09-06T04:42:39.605Z,17.93
2022-09-06T04:47:41.162Z,17.96
2022-09-06T04:52:42.683Z,17.99
2022-09-06T04:57:46.643Z,17.90
2022-09-06T05:02:51.069Z,18.13
2022-09-06T05:07:53.731Z,17.76
2022-09-06T05:12:55.440Z,17.84
2022-09-06T05:18:04.791Z,17.70
2022-09-06T05:23:06.342Z,17.67
2022-09-06T05:28:07.877Z,17.41
2022-09-06T05:33:10.594Z,17.34
2022-09-06T05:38:12.117Z,17.70
2022-09-06T05:43:13.653Z,17.57
2022-09-06T05:48:15.170Z,17.65
2022-09-06T05:53:16.701Z,17.70
2022-09-06T05:58:18.224Z,18.08
2022-09-06T06:03:19.761Z,18.10
2022-09-06T06:08:21.315Z,18.37
2022-09-06T06:13:23.116Z,18.40
2022-09-06T06:18:25.002Z,18.62
2022-09-06T06:23:27.999Z,18.68
2022-09-06T06:28:29.571Z,18.87
2022-09-06T06:33:32.443Z,18.92
2022-09-06T06:38:36.160Z,19.07
2022-09-06T06:43:38.494Z,19.35
2022-09-06T06:48:41.356Z,19.92
2022-09-06T06:53:44.510Z,20.61
2022-09-06T06:58:48.792Z,21.18
2022-09-06T07:03:51.044Z,21.44
2022-09-06T07:08:52.618Z,21.35
2022-09-06T07:13:54.374Z,21.51
2022-09-06T07:18:56.127Z,22.27
2022-09-06T07:29:07.557Z,22.82
2022-09-06T07:34:09.083Z,23.75
2022-09-06T07:39:10.714Z,23.05
2022-09-06T07:44:12.335Z,24.07
2022-09-06T07:49:13.930Z,23.70
2022-09-06T07:54:31.530Z,24.65
2022-09-06T07:59:33.255Z,24.27
2022-09-06T08:04:37.306Z,24.32
2022-09-06T08:09:38.828Z,24.56
2022-09-06T08:14:40.315Z,24.21
2022-09-06T08:19:42.936Z,24.91
2022-09-06T08:24:44.481Z,24.78
2022-09-06T08:29:46.047Z,25.91
2022-09-06T08:34:47.721Z,25.44
2022-09-06T08:39:49.352Z,26.03
2022-09-06T08:50:03.448Z,25.91
2022-09-06T08:55:30.407Z,26.38
2022-09-06T09:00:34.701Z,27.10
2022-09-06T09:05:41.247Z,27.07
2022-09-06T09:10:46.128Z,27.22
2022-09-06T09:15:47.774Z,27.17
2022-09-06T09:20:50.651Z,26.72
2022-09-06T09:25:56.040Z,27.23
2022-09-06T09:30:57.786Z,27.37
2022-09-06T09:36:07.448Z,27.72
2022-09-06T09:41:10.361Z,27.50
2022-09-06T09:46:24.373Z,27.98
2022-09-06T09:51:27.664Z,27.18
2022-09-06T09:57:01.550Z,27.95
2022-09-06T10:02:35.711Z,27.81
2022-09-06T10:07:45.227Z,27.55
2022-09-06T10:12:46.842Z,27.48
2022-09-06T10:17:51.944Z,27.89
2022-09-06T10:23:05.671Z,27.78
2022-09-06T10:28:28.591Z,28.72
2022-09-06T10:33:56.655Z,28.26
2022-09-06T10:39:06.138Z,29.27
2022-09-06T10:44:45.671Z,29.34
2022-09-06T10:49:57.849Z,29.23
2022-09-06T10:55:04.902Z,29.54
2022-09-06T11:00:42.285Z,29.87
2022-09-06T11:05:52.979Z,30.21
2022-09-06T11:11:28.476Z,29.13
2022-09-06T11:16:39.971Z,30.09
2022-09-06T11:22:08.167Z,29.18
2022-09-06T11:27:21.862Z,28.53
2022-09-06T11:32:48.939Z,29.71
2022-09-06T11:38:01.157Z,29.34
2022-09-06T11:43:03.261Z,29.57
2022-09-06T11:48:23.136Z,29.71
2022-09-06T11:53:29.857Z,29.43
2022-09-06T11:58:47.684Z,29.56
2022-09-06T12:04:15.918Z,29.29
2022-09-06T12:09:40.813Z,29.34
2022-09-06T12:14:46.723Z,28.48
2022-09-06T12:19:48.256Z,29.06
2022-09-06T12:24:54.047Z,29.06
2022-09-06T12:30:01.785Z,28.95
2022-09-06T12:40:35.291Z,29.53
2022-09-06T12:45:42.863Z,29.48
2022-09-06T12:50:44.483Z,30.22
2022-09-06T12:55:46.001Z,29.39
2022-09-06T13:00:52.242Z,29.36
2022-09-06T13:05:56.008Z,29.37
2022-09-06T13:10:58.040Z,28.11
2022-09-06T13:15:59.688Z,29.12
2022-09-06T13:21:05.711Z,29.18
2022-09-06T13:26:07.229Z,28.97
2022-09-06T13:31:17.510Z,29.22
2022-09-06T13:36:26.736Z,29.03
2022-09-06T13:41:28.183Z,29.48
2022-09-06T13:46:30.299Z,29.31
2022-09-06T13:51:32.145Z,28.81
2022-09-06T13:56:33.757Z,29.61
2022-09-06T14:01:35.456Z,28.26
2022-09-06T14:06:37.197Z,29.31
2022-09-06T14:11:39.255Z,29.46
2022-09-06T14:16:41.003Z,29.80
2022-09-06T14:21:43.316Z,30.01
2022-09-06T14:26:44.857Z,29.64
2022-09-06T14:31:48.335Z,29.27
2022-09-06T14:36:49.939Z,29.70
2022-09-06T14:41:52.108Z,29.29
2022-09-06T14:46:54.577Z,29.52
2022-09-06T14:52:13.656Z,29.71
2022-09-06T14:57:15.328Z,29.22
2022-09-06T15:02:16.924Z,29.44
2022-09-06T15:07:18.654Z,29.72
2022-09-06T15:12:20.681Z,29.44
2022-09-06T15:17:22.216Z,29.51
2022-09-06T15:22:23.731Z,29.25
2022-09-06T15:34:26.160Z,28.96
2022-09-06T15:39:27.908Z,29.20
2022-09-06T15:44:29.548Z,29.35
2022-09-06T15:49:32.316Z,29.00
2022-09-06T15:55:17.759Z,28.66
2022-09-06T16:00:21.983Z,28.94
2022-09-06T16:10:46.704Z,28.61
2022-09-06T16:16:00.252Z,28.31
2022-09-06T16:21:10.378Z,28.29
2022-09-06T16:26:41.009Z,27.88
2022-09-06T16:31:43.000Z,27.75
2022-09-06T16:36:46.536Z,27.52
2022-09-06T16:42:04.267Z,27.37
2022-09-06T16:47:38.551Z,27.35
2022-09-06T16:53:46.412Z,27.23
2022-09-06T16:59:08.154Z,26.81
2022-09-06T17:04:38.327Z,26.53
2022-09-06T17:10:33.474Z,26.32
2022-09-06T17:15:55.158Z,26.12
2022-09-06T17:21:07.427Z,25.85
2022-09-06T17:26:15.555Z,25.65
2022-09-06T17:31:22.213Z,25.41
2022-09-06T17:36:30.512Z,24.90
2022-09-06T17:41:38.933Z,24.62
2022-09-06T17:46:57.149Z,24.14
2022-09-06T17:52:03.340Z,23.79
2022-09-06T17:57:04.859Z,23.51
2022-09-06T18:02:09.995Z,23.26
2022-09-06T18:07:11.762Z,23.03
2022-09-06T18:12:13.888Z,23.05
2022-09-06T18:17:15.635Z,23.18
2022-09-06T18:22:17.144Z,23.17
2022-09-06T18:27:18.722Z,22.91
2022-09-06T18:32:20.227Z,22.47
2022-09-06T18:37:22.511Z,22.44
2022-09-06T18:42:24.158Z,22.23
2022-09-06T18:47:25.736Z,22.20
2022-09-06T18:52:27.838Z,22.12
2022-09-06T18:57:30.647Z,21.98
2022-09-06T19:02:32.336Z,21.92
2022-09-06T19:07:33.896Z,22.05
2022-09-06T19:12:35.495Z,21.61
2022-09-06T19:17:37.009Z,21.86
2022-09-06T19:22:38.508Z,22.15
2022-09-06T19:27:40.050Z,22.07
2022-09-06T19:32:41.631Z,22.59
2022-09-06T19:37:43.513Z,22.68
2022-09-06T19:42:45.238Z,22.79
2022-09-06T19:47:46.872Z,22.82
2022-09-06T19:52:49.415Z,22.62
2022-09-06T19:57:50.967Z,22.49
2022-09-06T20:03:21.546Z,22.66
2022-09-06T20:08:23.333Z,22.49
2022-09-06T20:13:26.512Z,22.28
2022-09-06T20:18:28.174Z,22.16
2022-09-06T20:23:30.732Z,22.19
2022-09-06T20:28:33.667Z,22.08
2022-09-06T20:33:35.647Z,22.13
2022-09-06T20:38:42.050Z,22.05
2022-09-06T20:43:44.193Z,22.13
2022-09-06T20:48:46.427Z,22.03
2022-09-06T20:54:00.093Z,22.06
2022-09-06T20:59:03.680Z,21.99
2022-09-06T21:04:13.518Z,21.93
2022-09-06T21:09:15.467Z,21.89
2022-09-06T21:14:18.199Z,21.78
2022-09-06T21:19:50.204Z,21.49
2022-09-06T21:24:51.730Z,20.96
2022-09-06T21:29:53.284Z,21.32
2022-09-06T21:34:54.783Z,21.31
2022-09-06T21:39:56.412Z,21.15
2022-09-06T21:44:57.987Z,21.18
2022-09-06T21:50:27.024Z,21.13
2022-09-06T21:55:32.369Z,21.19
2022-09-06T22:00:34.747Z,21.27
2022-09-06T22:05:36.384Z,21.37
2022-09-06T22:10:37.886Z,21.49
2022-09-06T22:15:39.776Z,21.61
2022-09-06T22:20:41.367Z,21.58
2022-09-06T22:25:42.891Z,21.56
2022-09-06T22:30:45.131Z,21.35
2022-09-06T22:35:46.699Z,21.28
2022-09-06T22:40:48.339Z,21.16
2022-09-06T22:45:52.169Z,21.27
2022-09-06T22:50:53.858Z,21.16
2022-09-06T22:55:57.114Z,21.18
2022-09-06T23:01:07.607Z,21.30
2022-09-06T23:06:09.818Z,21.22
2022-09-06T23:11:14.125Z,21.30
2022-09-06T23:16:18.661Z,21.14
2022-09-06T23:21:24.258Z,21.07
2022-09-06T23:26:29.549Z,20.89
2022-09-06T23:31:32.547Z,20.79
2022-09-06T23:36:34.255Z,20.61
2022-09-06T23:41:35.852Z,20.20
2022-09-06T23:46:37.620Z,19.68
2022-09-06T23:51:39.203Z,18.89
2022-09-06T23:56:40.707Z,18.60
